Time;durP1;ratioP1;P1;durP2;ratioP2;P2;SDS_P1;SDS_P2;PMS_P1;PMS_P2;Temp;Humidity;BMP_temperature;BMP_pressure;BME280_temperature;BME280_humidity;BME280_pressure;Samples;Min_cycle;Max_cycle;Signal;HPM_P1;HPM_P2
2022/12/19 00:00:35;;;;;;;58.05;29.27;;;;;;;-4.94;100.00;100724.47;5049202;28;20045;-61
2022/12/19 00:03:26;;;;;;;66.03;30.55;;;;;;;-4.95;100.00;100709.94;5050918;28;20068;-61
2022/12/19 00:06:12;;;;;;;58.28;29.73;;;;;;;-5.04;100.00;100719.94;5050473;28;20037;-61
2022/12/19 00:08:59;;;;;;;58.08;30.25;;;;;;;-4.86;100.00;100715.31;5046165;28;20774;-60
2022/12/19 00:11:46;;;;;;;54.25;27.90;;;;;;;-4.80;100.00;100713.72;5048783;28;20051;-61
2022/12/19 00:14:31;;;;;;;60.75;28.83;;;;;;;-4.85;100.00;100724.69;5051896;28;20041;-61
2022/12/19 00:17:15;;;;;;;60.25;29.40;;;;;;;-4.91;100.00;100709.19;5050325;28;20049;-61
2022/12/19 00:20:00;;;;;;;55.17;28.40;;;;;;;-4.89;100.00;100717.78;5050903;28;20065;-61
2022/12/19 00:22:45;;;;;;;56.58;27.67;;;;;;;-4.91;100.00;100721.97;5042597;28;20120;-61
2022/12/19 00:25:29;;;;;;;58.78;30.15;;;;;;;-4.90;100.00;100713.50;5050358;28;20123;-61
2022/12/19 00:28:14;;;;;;;60.67;30.05;;;;;;;-4.93;100.00;100723.66;5051180;28;20055;-61
2022/12/19 00:31:00;;;;;;;59.38;30.50;;;;;;;-4.99;100.00;100715.78;5048287;28;20057;-61
2022/12/19 00:33:46;;;;;;;60.88;29.67;;;;;;;-4.98;100.00;100715.00;5050080;28;20124;-61
2022/12/19 00:36:32;;;;;;;65.05;27.30;;;;;;;-4.84;100.00;100712.78;5045206;28;20523;-60
2022/12/19 00:39:17;;;;;;;58.83;29.45;;;;;;;-4.46;100.00;100696.66;5037744;28;20098;-60
2022/12/19 00:42:03;;;;;;;57.05;28.45;;;;;;;-4.64;100.00;100713.31;5050098;28;20145;-61
2022/12/19 00:44:48;;;;;;;64.97;31.48;;;;;;;-4.75;100.00;100713.00;5051039;28;20044;-62
2022/12/19 00:47:34;;;;;;;54.58;28.73;;;;;;;-4.61;100.00;100700.59;5051431;28;20053;-62
2022/12/19 00:50:18;;;;;;;59.97;30.15;;;;;;;-4.75;100.00;100701.94;5050336;28;20136;-60
2022/12/19 00:53:03;;;;;;;59.85;30.38;;;;;;;-4.89;100.00;100697.31;5050788;28;20507;-60
2022/12/19 00:55:47;;;;;;;61.00;30.73;;;;;;;-4.80;100.00;100693.28;5050801;28;20045;-60
2022/12/19 00:58:32;;;;;;;62.83;31.35;;;;;;;-4.91;100.00;100693.00;5049687;28;20143;-60
2022/12/19 01:01:24;;;;;;;64.70;30.95;;;;;;;-4.78;100.00;100712.09;5047561;28;20068;-61
2022/12/19 01:04:15;;;;;;;64.38;30.73;;;;;;;-4.96;100.00;100693.72;5049593;28;20045;-60
2022/12/19 01:07:00;;;;;;;60.88;31.80;;;;;;;-5.00;100.00;100704.72;5048293;28;20178;-60
2022/12/19 01:09:44;;;;;;;57.83;29.05;;;;;;;-4.85;100.00;100704.22;5045708;28;20159;-61
2022/12/19 01:12:46;;;;;;;59.05;30.15;;;;;;;-4.83;100.00;100704.31;5049145;28;20052;-60
2022/12/19 01:15:31;;;;;;;65.88;31.60;;;;;;;-4.84;100.00;100700.88;5049094;28;20049;-60
2022/12/19 01:18:16;;;;;;;58.00;29.55;;;;;;;-4.82;100.00;100694.09;5040193;28;20045;-62
2022/12/19 01:21:04;;;;;;;67.15;31.55;;;;;;;-4.63;100.00;100683.44;5048715;28;20433;-60
2022/12/19 01:23:51;;;;;;;62.47;31.55;;;;;;;-4.66;100.00;100685.94;5038553;28;20377;-59
2022/12/19 01:26:36;;;;;;;59.95;30.27;;;;;;;-4.80;100.00;100699.25;5039882;28;20049;-60
2022/12/19 01:29:21;;;;;;;58.90;29.48;;;;;;;-4.74;100.00;100686.63;5047202;28;20512;-61
2022/12/19 01:32:06;;;;;;;62.58;31.58;;;;;;;-4.64;100.00;100690.28;5050288;28;20052;-60
2022/12/19 01:34:51;;;;;;;60.88;29.73;;;;;;;-4.72;100.00;100684.09;5034940;28;20186;-60
2022/12/19 01:37:35;;;;;;;59.80;29.48;;;;;;;-4.60;100.00;100686.94;5049870;28;20504;-60
2022/12/19 01:40:21;;;;;;;60.40;30.27;;;;;;;-4.71;100.00;100671.34;5048567;28;20041;-61
2022/12/19 01:43:12;;;;;;;60.60;31.08;;;;;;;-4.73;100.00;100667.88;5048964;28;20376;-62
2022/12/19 01:46:03;;;;;;;56.20;28.70;;;;;;;-4.70;100.00;100657.72;5038651;28;20479;-61
2022/12/19 01:48:47;;;;;;;61.17;30.83;;;;;;;-4.61;100.00;100651.09;5048224;28;20097;-61
2022/12/19 01:51:45;;;;;;;58.22;30.25;;;;;;;-4.67;100.00;100646.72;5049398;28;20070;-62
2022/12/19 01:54:39;;;;;;;61.75;30.15;;;;;;;-4.82;100.00;100648.06;5049935;28;20071;-62
2022/12/19 01:57:24;;;;;;;61.55;30.92;;;;;;;-4.80;100.00;100644.66;5049067;28;20045;-61
2022/12/19 02:00:09;;;;;;;59.65;31.42;;;;;;;-4.86;100.00;100636.00;5049269;28;20068;-60
2022/12/19 02:03:07;;;;;;;60.20;30.45;;;;;;;-4.75;100.00;100628.59;5049356;28;20037;-60
2022/12/19 02:05:53;;;;;;;56.13;28.85;;;;;;;-4.70;100.00;100624.47;5047846;28;20111;-61
2022/12/19 02:08:39;;;;;;;55.30;29.08;;;;;;;-4.66;100.00;100625.41;5043403;28;20500;-60
2022/12/19 02:11:25;;;;;;;58.45;28.75;;;;;;;-4.69;100.00;100622.78;5048943;28;20056;-60
2022/12/19 02:14:10;;;;;;;58.75;25.15;;;;;;;-4.58;100.00;100636.69;5043246;28;20388;-60
2022/12/19 02:17:07;;;;;;;60.72;31.33;;;;;;;-4.71;100.00;100629.53;5047999;28;20060;-60
2022/12/19 02:20:28;;;;;;;60.63;31.38;;;;;;;-4.75;100.00;100622.63;5042329;28;20076;-61
2022/12/19 02:23:40;;;;;;;56.85;24.63;;;;;;;-4.77;100.00;100625.16;5024852;28;20056;-61
2022/12/19 02:26:50;;;;;;;64.50;30.25;;;;;;;-4.56;100.00;100621.38;5035032;28;20129;-61
2022/12/19 02:29:45;;;;;;;61.88;30.88;;;;;;;-4.70;100.00;100624.47;5042293;28;20064;-61
2022/12/19 02:32:54;;;;;;;59.55;29.20;;;;;;;-4.65;100.00;100633.97;5047262;28;20128;-61
2022/12/19 02:35:50;;;;;;;58.85;25.45;;;;;;;-4.80;100.00;100627.63;5042809;28;20420;-61
2022/12/19 02:38:42;;;;;;;64.50;25.25;;;;;;;-4.88;100.00;100627.44;5047975;28;20064;-61
2022/12/19 02:41:42;;;;;;;60.63;24.05;;;;;;;-4.71;100.00;100635.53;5048710;28;20072;-61
2022/12/19 02:44:46;;;;;;;52.08;21.98;;;;;;;-4.54;100.00;100632.50;5038924;28;20052;-61
2022/12/19 02:47:32;;;;;;;54.55;24.63;;;;;;;-4.86;100.00;100640.25;5046529;28;20045;-61
2022/12/19 02:50:18;;;;;;;57.15;23.75;;;;;;;-4.95;100.00;100634.09;5047712;28;20477;-61
2022/12/19 02:53:03;;;;;;;55.20;24.88;;;;;;;-4.95;100.00;100636.66;5042323;28;20049;-61
2022/12/19 02:56:18;;;;;;;52.92;23.33;;;;;;;-5.00;100.00;100627.13;5038805;28;20411;-61
2022/12/19 02:59:31;;;;;;;55.28;24.65;;;;;;;-4.96;100.00;100623.84;5038784;28;20045;-60
2022/12/19 03:02:48;;;;;;;58.90;25.67;;;;;;;-4.91;100.00;100640.13;5071314;28;20055;-61
2022/12/19 03:05:38;;;;;;;56.60;22.67;;;;;;;-4.93;100.00;100616.25;5038958;28;20048;-60
2022/12/19 03:08:35;;;;;;;56.28;25.65;;;;;;;-4.98;100.00;100615.25;5043754;28;20041;-61
2022/12/19 03:11:23;;;;;;;57.15;24.70;;;;;;;-4.98;100.00;100615.25;5036026;28;20048;-60
2022/12/19 03:14:13;;;;;;;56.03;24.73;;;;;;;-5.01;100.00;100616.03;5033746;28;20045;-59
2022/12/19 03:17:05;;;;;;;60.42;24.48;;;;;;;-4.84;100.00;100613.91;5047396;28;20072;-60
2022/12/19 03:19:50;;;;;;;62.97;25.63;;;;;;;-4.92;100.00;100611.97;5047541;28;20137;-60
2022/12/19 03:22:35;;;;;;;56.47;23.73;;;;;;;-4.79;100.00;100611.47;5048621;28;20440;-59
2022/12/19 03:25:21;;;;;;;55.47;24.42;;;;;;;-4.81;100.00;100607.97;5050208;28;20059;-60
2022/12/19 03:28:15;;;;;;;63.45;25.13;;;;;;;-4.81;100.00;100605.44;5051649;28;20069;-59
2022/12/19 03:31:02;;;;;;;51.90;23.50;;;;;;;-4.88;100.00;100617.19;5048407;28;20059;-60
2022/12/19 03:33:53;;;;;;;54.40;24.40;;;;;;;-4.81;100.00;100623.34;5052383;28;20048;-60
2022/12/19 03:36:46;;;;;;;53.83;24.15;;;;;;;-4.76;100.00;100618.31;5052209;28;20102;-62
2022/12/19 03:39:32;;;;;;;60.15;23.38;;;;;;;-4.62;100.00;100616.97;5051975;28;20507;-60
2022/12/19 03:45:53;;;;;;;61.20;25.83;;;;;;;-4.72;100.00;100628.66;5046275;28;20049;-64
2022/12/19 03:48:47;;;;;;;53.95;23.77;;;;;;;-4.76;100.00;100621.75;5050858;28;20051;-61
2022/12/19 03:52:04;;;;;;;63.05;25.60;;;;;;;-4.66;100.00;100633.06;5047815;28;20079;-62
2022/12/19 03:54:55;;;;;;;53.50;23.80;;;;;;;-4.74;100.00;100629.47;5048710;28;20041;-61
2022/12/19 03:57:51;;;;;;;57.30;24.30;;;;;;;-4.70;100.00;100618.50;5050952;28;20053;-62
2022/12/19 04:00:39;;;;;;;50.35;22.42;;;;;;;-4.66;100.00;100620.28;5050173;28;20124;-61
2022/12/19 04:03:24;;;;;;;52.15;22.48;;;;;;;-4.72;100.00;100636.34;5048328;28;20049;-61
2022/12/19 04:06:10;;;;;;;56.85;24.27;;;;;;;-4.65;100.00;100631.41;5048014;28;20128;-61
2022/12/19 04:08:56;;;;;;;57.38;23.42;;;;;;;-4.60;100.00;100622.97;5048472;28;20080;-61
2022/12/19 04:11:45;;;;;;;47.03;21.08;;;;;;;-4.45;100.00;100629.28;5045859;28;20089;-61
2022/12/19 04:14:35;;;;;;;49.25;23.38;;;;;;;-4.57;100.00;100625.63;5047611;28;20455;-61
2022/12/19 04:17:51;;;;;;;55.25;24.17;;;;;;;-4.55;100.00;100620.53;5042182;28;20080;-60
2022/12/19 04:20:40;;;;;;;61.47;24.77;;;;;;;-4.54;100.00;100617.16;5047776;28;20045;-60
2022/12/19 04:23:38;;;;;;;55.10;22.98;;;;;;;-4.61;100.00;100603.34;5033609;28;20403;-60
2022/12/19 04:26:23;;;;;;;58.30;23.98;;;;;;;-4.49;100.00;100610.44;5051463;28;20048;-60
2022/12/19 04:29:12;;;;;;;53.03;22.67;;;;;;;-4.58;100.00;100611.09;5050582;28;20059;-60
2022/12/19 04:31:57;;;;;;;55.92;22.98;;;;;;;-4.60;100.00;100606.75;5044086;28;20476;-60
2022/12/19 04:34:41;;;;;;;48.75;21.55;;;;;;;-4.38;100.00;100600.47;5051059;28;20474;-60
2022/12/19 04:37:27;;;;;;;56.08;24.10;;;;;;;-4.36;100.00;100603.06;5051276;28;20072;-60
2022/12/19 04:40:12;;;;;;;54.83;21.88;;;;;;;-4.48;100.00;100613.88;5045760;28;20036;-61
2022/12/19 04:42:57;;;;;;;61.67;25.33;;;;;;;-4.39;100.00;100593.59;5050570;28;20048;-60
2022/12/19 04:45:42;;;;;;;55.53;22.70;;;;;;;-4.45;100.00;100601.13;5051312;28;20120;-60
2022/12/19 04:48:26;;;;;;;50.13;21.70;;;;;;;-4.51;100.00;100596.75;5051135;28;20064;-60
2022/12/19 04:51:11;;;;;;;51.58;22.98;;;;;;;-4.42;100.00;100598.63;5050849;28;20116;-61
2022/12/19 04:53:56;;;;;;;53.35;21.95;;;;;;;-4.40;100.00;100593.56;5044504;28;20048;-61
2022/12/19 04:56:41;;;;;;;51.85;23.13;;;;;;;-4.45;100.00;100598.56;5050964;28;20503;-61
2022/12/19 04:59:25;;;;;;;55.28;22.73;;;;;;;-4.39;100.00;100587.63;5039408;28;20547;-61
2022/12/19 05:02:10;;;;;;;54.30;24.55;;;;;;;-4.50;100.00;100582.25;5047970;28;20579;-61
2022/12/19 05:04:55;;;;;;;53.40;24.08;;;;;;;-4.55;100.00;100577.03;5021474;28;20445;-61
2022/12/19 05:07:40;;;;;;;53.05;23.40;;;;;;;-4.53;100.00;100572.81;5050270;28;20072;-60
2022/12/19 05:10:24;;;;;;;61.47;24.23;;;;;;;-4.58;100.00;100584.63;5034044;28;20064;-60
2022/12/19 05:13:09;;;;;;;56.50;23.58;;;;;;;-4.55;100.00;100583.88;5049196;28;20049;-61
2022/12/19 05:16:06;;;;;;;56.92;22.67;;;;;;;-4.52;100.00;100578.81;5048681;28;20045;-61
2022/12/19 05:18:53;;;;;;;53.15;23.83;;;;;;;-4.38;100.00;100574.00;5042034;28;20585;-61
2022/12/19 05:21:37;;;;;;;56.20;23.30;;;;;;;-4.50;100.00;100572.88;5076184;28;20095;-61
2022/12/19 05:24:22;;;;;;;58.67;22.95;;;;;;;-4.45;100.00;100581.53;5049768;28;20468;-62
2022/12/19 05:27:06;;;;;;;53.10;23.25;;;;;;;-4.46;100.00;100587.50;5048287;28;20508;-64
2022/12/19 05:29:51;;;;;;;53.15;22.40;;;;;;;-4.46;100.00;100581.50;5049005;28;20051;-59
2022/12/19 05:32:36;;;;;;;56.70;26.00;;;;;;;-4.47;100.00;100580.63;5049015;28;20052;-60
2022/12/19 05:35:20;;;;;;;53.55;23.05;;;;;;;-4.12;100.00;100577.09;5048792;28;20044;-59
2022/12/19 05:38:05;;;;;;;48.22;23.23;;;;;;;-4.03;100.00;100588.38;5044215;28;20041;-59
2022/12/19 05:40:50;;;;;;;52.85;24.15;;;;;;;-4.24;100.00;100579.41;5049276;28;20112;-60
2022/12/19 05:43:36;;;;;;;58.10;29.05;;;;;;;-4.10;100.00;100592.50;5049942;28;20037;-60
2022/12/19 05:46:23;;;;;;;54.22;23.73;;;;;;;-4.22;100.00;100604.22;5046255;28;20037;-60
2022/12/19 05:49:07;;;;;;;53.40;23.40;;;;;;;-4.23;100.00;100604.19;5048238;28;20049;-60
2022/12/19 05:51:52;;;;;;;44.60;22.15;;;;;;;-4.09;100.00;100601.91;5049075;28;20508;-61
2022/12/19 05:54:36;;;;;;;50.20;24.15;;;;;;;-4.29;100.00;100598.94;5028508;28;20524;-60
2022/12/19 05:57:21;;;;;;;50.25;21.98;;;;;;;-4.18;100.00;100620.50;5046690;28;20131;-59
2022/12/19 06:00:08;;;;;;;49.33;23.45;;;;;;;-4.31;100.00;100613.38;5049211;28;20071;-60
2022/12/19 06:02:57;;;;;;;49.10;27.40;;;;;;;-4.18;100.00;100605.16;5048868;28;20052;-59
2022/12/19 06:05:42;;;;;;;53.08;22.10;;;;;;;-4.07;100.00;100602.81;5036819;28;20045;-60
2022/12/19 06:08:26;;;;;;;52.38;21.73;;;;;;;-4.23;100.00;100602.47;5048728;28;20125;-60
2022/12/19 06:11:12;;;;;;;59.20;23.98;;;;;;;-4.23;100.00;100597.34;5049522;28;20053;-60
2022/12/19 06:13:57;;;;;;;51.80;21.77;;;;;;;-4.28;100.00;100608.34;5048071;28;20033;-60
2022/12/19 06:16:42;;;;;;;52.80;22.65;;;;;;;-4.29;100.00;100599.78;5049388;28;20110;-61
2022/12/19 06:19:28;;;;;;;53.95;24.90;;;;;;;-4.36;100.00;100598.78;5049921;28;20068;-61
2022/12/19 06:22:13;;;;;;;47.80;20.67;;;;;;;-4.31;100.00;100600.59;5049925;28;20082;-60
2022/12/19 06:24:58;;;;;;;43.33;19.60;;;;;;;-4.47;100.00;100602.78;5048970;28;20434;-60
2022/12/19 06:27:42;;;;;;;54.60;20.70;;;;;;;-4.49;100.00;100612.16;5048837;28;20095;-61
2022/12/19 06:30:27;;;;;;;52.10;21.38;;;;;;;-4.36;100.00;100619.25;5049569;28;20442;-61
2022/12/19 06:33:12;;;;;;;45.20;20.55;;;;;;;-4.46;100.00;100620.75;5040215;28;20040;-61
2022/12/19 06:36:02;;;;;;;47.97;19.63;;;;;;;-4.34;100.00;100606.50;5049048;28;20045;-60
2022/12/19 06:38:47;;;;;;;47.22;19.67;;;;;;;-4.51;100.00;100613.78;5049106;28;20052;-61
2022/12/19 06:44:35;;;;;;;45.75;19.52;;;;;;;-4.60;100.00;100620.44;5036776;28;20051;-61
2022/12/19 06:47:21;;;;;;;42.58;18.92;;;;;;;-4.60;100.00;100629.78;5049108;28;20051;-62
2022/12/19 06:50:06;;;;;;;41.38;18.13;;;;;;;-4.62;100.00;100622.06;5049184;28;20484;-61
2022/12/19 06:52:50;;;;;;;43.45;19.58;;;;;;;-4.59;100.00;100641.78;5038405;28;20033;-61
2022/12/19 06:55:36;;;;;;;44.75;19.65;;;;;;;-4.66;100.00;100643.31;5047770;28;20096;-61
2022/12/19 06:58:21;;;;;;;40.83;17.73;;;;;;;-4.51;100.00;100639.38;5049081;28;20492;-59
2022/12/19 07:01:05;;;;;;;41.85;19.40;;;;;;;-4.57;100.00;100627.31;5042638;28;20116;-61
2022/12/19 07:03:50;;;;;;;42.50;19.13;;;;;;;-4.76;100.00;100638.78;5051139;28;20182;-61
2022/12/19 07:06:34;;;;;;;40.05;17.10;;;;;;;-4.72;100.00;100667.03;5053034;28;20049;-60
2022/12/19 07:09:20;;;;;;;43.25;18.80;;;;;;;-4.68;100.00;100670.53;5050003;28;20061;-59
2022/12/19 07:12:06;;;;;;;37.63;15.05;;;;;;;-4.69;100.00;100643.25;5050770;28;20049;-59
2022/12/19 07:14:51;;;;;;;39.17;18.02;;;;;;;-4.78;100.00;100674.56;5052268;28;20459;-59
2022/12/19 07:17:36;;;;;;;39.70;18.33;;;;;;;-4.65;100.00;100646.75;5052541;28;20533;-60
2022/12/19 07:20:21;;;;;;;40.47;18.30;;;;;;;-4.73;100.00;100692.59;5039639;28;20049;-60
2022/12/19 07:23:08;;;;;;;42.13;17.98;;;;;;;-4.70;100.00;100662.00;5052064;28;20122;-59
2022/12/19 07:25:53;;;;;;;41.58;18.02;;;;;;;-4.63;100.00;100633.16;5052573;28;20049;-59
2022/12/19 07:28:38;;;;;;;39.65;17.05;;;;;;;-4.66;100.00;100652.66;5052280;28;20041;-59
2022/12/19 07:31:23;;;;;;;39.15;19.02;;;;;;;-4.71;100.00;100644.88;5051306;28;20047;-60
2022/12/19 07:34:08;;;;;;;38.95;16.77;;;;;;;-4.64;100.00;100662.13;5052493;28;20128;-60
2022/12/19 07:36:53;;;;;;;39.50;16.27;;;;;;;-4.75;100.00;100677.19;5043213;28;20488;-60
2022/12/19 07:39:38;;;;;;;38.80;17.50;;;;;;;-4.76;100.00;100654.13;5051653;28;20276;-60
2022/12/19 07:42:22;;;;;;;36.65;14.70;;;;;;;-4.61;100.00;100644.28;5052044;28;20128;-60
2022/12/19 07:45:08;;;;;;;38.63;15.30;;;;;;;-4.68;100.00;100650.06;5051416;28;20122;-60
2022/12/19 07:47:53;;;;;;;36.83;16.13;;;;;;;-4.62;100.00;100668.13;5052401;28;20037;-61
2022/12/19 07:50:39;;;;;;;41.35;18.23;;;;;;;-4.62;100.00;100665.56;5051776;28;20054;-60
2022/12/19 07:53:26;;;;;;;38.85;18.40;;;;;;;-4.57;100.00;100676.78;5051743;28;20045;-61
2022/12/19 07:56:11;;;;;;;37.47;15.77;;;;;;;-4.55;100.00;100675.97;5041214;28;20530;-61
2022/12/19 07:58:55;;;;;;;39.22;17.05;;;;;;;-4.59;100.00;100723.66;5051413;28;20041;-60
2022/12/19 08:01:40;;;;;;;39.70;16.85;;;;;;;-4.59;100.00;100675.03;5051845;28;20095;-62
2022/12/19 08:04:24;;;;;;;40.30;16.55;;;;;;;-4.48;100.00;100695.75;5052057;28;20056;-61
2022/12/19 08:07:09;;;;;;;44.17;17.35;;;;;;;-4.51;100.00;100686.31;5051712;28;20124;-60
2022/12/19 08:09:54;;;;;;;39.83;15.95;;;;;;;-4.50;100.00;100695.72;5049795;28;20606;-60
2022/12/19 08:12:39;;;;;;;36.13;17.25;;;;;;;-4.42;100.00;100672.88;5051736;28;20041;-61
2022/12/19 08:15:23;;;;;;;32.88;14.60;;;;;;;-4.44;100.00;100656.63;5039562;28;20487;-60
2022/12/19 08:18:08;;;;;;;34.25;16.65;;;;;;;-4.38;100.00;100654.22;5050554;28;20159;-60
2022/12/19 08:20:52;;;;;;;39.30;15.07;;;;;;;-4.45;100.00;100683.91;5051795;28;20068;-61
2022/12/19 08:23:37;;;;;;;38.63;16.35;;;;;;;-4.46;100.00;100694.97;5040124;28;20546;-60
2022/12/19 08:26:25;;;;;;;34.83;15.32;;;;;;;-4.36;100.00;100683.25;5051335;28;20043;-61
2022/12/19 08:29:10;;;;;;;42.75;17.73;;;;;;;-4.42;100.00;100672.88;5049270;28;20056;-61
2022/12/19 08:31:55;;;;;;;39.67;16.05;;;;;;;-4.33;100.00;100667.97;5040567;28;20381;-61
2022/12/19 08:34:39;;;;;;;37.88;15.80;;;;;;;-4.34;100.00;100689.28;5051072;28;20123;-60
2022/12/19 08:37:24;;;;;;;34.90;14.57;;;;;;;-4.27;100.00;100667.25;5050897;28;20124;-61
2022/12/19 08:40:09;;;;;;;40.63;17.80;;;;;;;-4.36;100.00;100672.16;5042284;28;20041;-62
2022/12/19 08:42:54;;;;;;;38.80;17.40;;;;;;;-4.26;100.00;100671.53;5037573;28;20129;-60
2022/12/19 08:45:38;;;;;;;40.80;15.93;;;;;;;-4.33;100.00;100675.66;5050781;28;20838;-60
2022/12/19 08:48:23;;;;;;;36.28;15.48;;;;;;;-4.27;100.00;100687.72;5050750;28;20116;-60
2022/12/19 08:51:09;;;;;;;35.88;16.45;;;;;;;-4.26;100.00;100691.16;5038850;28;20090;-59
2022/12/19 08:53:54;;;;;;;41.70;16.77;;;;;;;-4.23;100.00;100681.81;5050215;28;20044;-62
2022/12/19 08:56:38;;;;;;;42.13;18.10;;;;;;;-4.18;100.00;100681.09;5050621;28;20051;-61
2022/12/19 08:59:24;;;;;;;47.03;17.20;;;;;;;-4.22;100.00;100678.47;5050902;28;20070;-60
2022/12/19 09:02:09;;;;;;;38.20;16.88;;;;;;;-4.19;100.00;100689.59;5050249;28;20444;-61
2022/12/19 09:04:54;;;;;;;40.35;16.30;;;;;;;-4.17;100.00;100734.00;5050294;28;20052;-61
2022/12/19 09:07:39;;;;;;;36.33;16.38;;;;;;;-4.09;100.00;100687.28;5050630;28;20690;-60
2022/12/19 09:10:24;;;;;;;36.17;15.63;;;;;;;-4.04;100.00;100684.81;5036637;28;20061;-62
2022/12/19 09:13:09;;;;;;;36.20;15.45;;;;;;;-4.06;100.00;100660.03;5050671;28;20048;-61
2022/12/19 09:16:10;;;;;;;40.13;17.80;;;;;;;-3.97;100.00;100671.34;5035206;28;20041;-61
2022/12/19 09:18:57;;;;;;;40.88;16.88;;;;;;;-4.02;100.00;100678.03;5039210;28;20041;-61
2022/12/19 09:21:43;;;;;;;36.10;16.30;;;;;;;-3.96;100.00;100685.00;5049493;28;20044;-61
2022/12/19 09:24:27;;;;;;;43.85;17.40;;;;;;;-3.93;100.00;100686.78;5049054;28;20040;-61
2022/12/19 09:27:12;;;;;;;39.72;16.45;;;;;;;-3.96;100.00;100665.38;5049460;28;20064;-61
2022/12/19 09:29:56;;;;;;;41.85;18.23;;;;;;;-3.91;100.00;100693.63;5050100;28;20054;-61
2022/12/19 09:32:41;;;;;;;37.45;16.30;;;;;;;-3.89;100.00;100686.00;5049603;28;20071;-63
2022/12/19 09:35:26;;;;;;;37.97;15.77;;;;;;;-3.81;100.00;100668.22;5049920;28;20065;-60
2022/12/19 09:38:11;;;;;;;35.63;16.35;;;;;;;-3.74;100.00;100670.09;5049559;28;20166;-62
2022/12/19 09:40:57;;;;;;;36.05;16.15;;;;;;;-3.79;100.00;100654.63;5049895;28;20071;-61
2022/12/19 09:43:48;;;;;;;41.17;17.20;;;;;;;-3.71;100.00;100652.22;5050355;28;20052;-61
2022/12/19 09:46:54;;;;;;;38.45;15.43;;;;;;;-3.65;100.00;100662.59;5046605;28;20041;-61
2022/12/19 09:49:46;;;;;;;34.40;14.43;;;;;;;-3.61;100.00;100650.69;5023299;28;20045;-60
2022/12/19 09:52:45;;;;;;;37.63;15.63;;;;;;;-3.65;100.00;100639.53;5039483;28;20053;-60
2022/12/19 09:55:34;;;;;;;38.75;16.42;;;;;;;-3.58;100.00;100663.56;5049644;28;20084;-61
2022/12/19 09:58:36;;;;;;;37.25;16.00;;;;;;;-3.60;100.00;100654.97;5050054;28;20045;-61
2022/12/19 10:01:29;;;;;;;41.67;16.60;;;;;;;-3.49;100.00;100670.56;5040072;28;20049;-59
2022/12/19 10:04:17;;;;;;;36.80;16.10;;;;;;;-3.44;100.00;100665.56;5037501;28;20480;-61
2022/12/19 10:07:02;;;;;;;35.45;14.30;;;;;;;-3.46;100.00;100668.09;5049431;28;20279;-60
2022/12/19 10:09:47;;;;;;;34.15;14.70;;;;;;;-3.40;100.00;100652.81;5049838;28;20053;-60
2022/12/19 10:12:52;;;;;;;36.20;16.02;;;;;;;-3.36;100.00;100648.59;5038809;28;20115;-59
2022/12/19 10:15:50;;;;;;;39.53;16.73;;;;;;;-3.41;100.00;100673.31;5046234;28;20051;-59
2022/12/19 10:18:51;;;;;;;33.50;16.23;;;;;;;-3.48;100.00;100664.63;5048009;28;20469;-60
2022/12/19 10:22:11;;;;;;;36.15;16.52;;;;;;;-3.32;100.00;100658.09;5048769;28;20041;-60
2022/12/19 10:25:14;;;;;;;41.72;17.25;;;;;;;-3.32;100.00;100680.28;5049401;28;20084;-60
2022/12/19 10:28:05;;;;;;;34.08;14.93;;;;;;;-3.24;100.00;100653.09;5048832;28;20487;-60
2022/12/19 10:31:06;;;;;;;33.08;15.07;;;;;;;-3.25;100.00;100654.78;5049339;28;20044;-60
2022/12/19 10:33:57;;;;;;;38.95;15.35;;;;;;;-3.29;100.00;100670.09;5024822;28;20053;-62
2022/12/19 10:36:45;;;;;;;39.63;15.90;;;;;;;-3.30;100.00;100646.16;5040679;28;20056;-60
2022/12/19 10:39:45;;;;;;;32.65;15.43;;;;;;;-3.26;100.00;100645.38;5053079;28;20417;-60
2022/12/19 10:42:39;;;;;;;37.83;16.27;;;;;;;-3.27;100.00;100651.34;5038022;28;20136;-60
2022/12/19 10:45:31;;;;;;;34.00;15.75;;;;;;;-3.24;100.00;100636.03;5053277;28;20536;-61
2022/12/19 10:48:19;;;;;;;34.53;16.80;;;;;;;-3.23;100.00;100650.56;5044267;28;20473;-60
2022/12/19 10:51:10;;;;;;;39.92;17.88;;;;;;;-3.19;100.00;100660.88;5052214;28;20206;-61
2022/12/19 10:53:59;;;;;;;36.67;15.57;;;;;;;-3.13;100.00;100643.03;5051543;28;20055;-61
2022/12/19 10:56:43;;;;;;;41.80;18.73;;;;;;;-2.99;100.00;100638.16;5053066;28;20060;-60
2022/12/19 10:59:28;;;;;;;37.30;15.77;;;;;;;-3.05;100.00;100643.19;5052691;28;20069;-59
2022/12/19 11:02:34;;;;;;;37.78;16.10;;;;;;;-3.02;100.00;100632.97;5052822;28;20056;-61
2022/12/19 11:05:37;;;;;;;43.05;17.73;;;;;;;-3.01;100.00;100627.88;5053119;28;20052;-62
2022/12/19 11:08:30;;;;;;;36.25;16.95;;;;;;;-2.94;100.00;100635.66;5052411;28;20044;-64
2022/12/19 11:11:17;;;;;;;40.17;17.30;;;;;;;-2.89;100.00;100619.50;5044802;28;20161;-61
2022/12/19 11:14:19;;;;;;;36.33;15.93;;;;;;;-2.89;100.00;100616.09;5041807;28;20395;-60
2022/12/19 11:17:05;;;;;;;33.50;15.85;;;;;;;-3.00;100.00;100621.03;5051769;28;20036;-61
2022/12/19 11:19:50;;;;;;;39.33;17.27;;;;;;;-2.94;100.00;100623.72;5052846;28;20049;-60
2022/12/19 11:22:35;;;;;;;37.10;15.88;;;;;;;-2.88;100.00;100593.03;5051741;28;20045;-60
2022/12/19 11:25:29;;;;;;;37.83;17.13;;;;;;;-2.90;100.00;100606.66;5052897;28;20052;-60
2022/12/19 11:28:23;;;;;;;38.65;17.08;;;;;;;-2.79;100.00;100599.16;5051962;28;20128;-60
2022/12/19 11:31:14;;;;;;;37.67;15.65;;;;;;;-2.83;100.00;100599.91;5051095;28;20077;-61
2022/12/19 11:34:05;;;;;;;37.60;17.95;;;;;;;-2.84;100.00;100601.66;5052178;28;20045;-62
2022/12/19 11:37:02;;;;;;;40.55;17.48;;;;;;;-2.79;100.00;100605.13;5042836;28;20045;-60
2022/12/19 11:39:52;;;;;;;38.90;19.00;;;;;;;-2.90;100.00;100610.09;5052197;28;20116;-61
2022/12/19 11:42:46;;;;;;;35.60;15.88;;;;;;;-2.91;100.00;100580.16;5052317;28;20055;-61
2022/12/19 11:45:54;;;;;;;38.47;16.77;;;;;;;-2.92;100.00;100603.22;5049729;28;20059;-62
2022/12/19 11:48:45;;;;;;;33.00;15.32;;;;;;;-2.74;100.00;100584.66;5050946;28;20582;-61
2022/12/19 11:51:49;;;;;;;38.30;17.10;;;;;;;-2.82;100.00;100588.84;5043539;28;20106;-61
2022/12/19 11:54:42;;;;;;;34.47;15.90;;;;;;;-2.83;100.00;100582.84;5042303;28;20052;-60
2022/12/19 11:57:27;;;;;;;38.30;17.05;;;;;;;-2.77;100.00;100595.75;5050247;28;20063;-61
2022/12/19 12:00:16;;;;;;;31.98;13.68;;;;;;;-2.66;100.00;100579.66;5052838;28;20450;-62
2022/12/19 12:03:20;;;;;;;34.40;15.63;;;;;;;-2.72;100.00;100567.59;5051717;28;20056;-61
2022/12/19 12:06:12;;;;;;;30.90;13.60;;;;;;;-2.69;100.00;100569.34;5048638;28;20128;-60
2022/12/19 12:09:05;;;;;;;;;;;;;;;-2.71;100.00;100571.91;5050744;28;20064;-60
2022/12/19 12:11:58;;;;;;;31.38;13.65;;;;;;;-2.66;100.00;100554.00;5048385;28;19926;-61
2022/12/19 12:15:14;;;;;;;28.70;13.85;;;;;;;-2.69;100.00;100552.25;5051105;28;20544;-61
2022/12/19 12:18:36;;;;;;;30.42;14.00;;;;;;;-2.70;100.00;100530.00;5051392;28;20052;-61
2022/12/19 12:21:23;;;;;;;28.52;13.63;;;;;;;-2.62;100.00;100523.25;5050005;28;20079;-60
2022/12/19 12:24:35;;;;;;;37.03;15.18;;;;;;;-2.69;100.00;100536.84;5049638;28;20041;-59
2022/12/19 12:27:57;;;;;;;30.02;13.52;;;;;;;-2.67;100.00;100526.59;5051380;28;20404;-59
2022/12/19 12:30:53;;;;;;;32.78;14.57;;;;;;;-2.75;100.00;100519.66;5051086;28;20122;-59
2022/12/19 12:33:52;;;;;;;28.95;12.57;;;;;;;-2.68;100.00;100518.06;5051340;28;20053;-60
2022/12/19 12:36:46;;;;;;;32.10;14.85;;;;;;;-2.68;100.00;100520.63;5050803;28;20500;-61
2022/12/19 12:39:46;;;;;;;31.80;14.40;;;;;;;-2.66;100.00;100511.22;5050981;28;20547;-61
2022/12/19 12:42:55;;;;;;;29.25;13.70;;;;;;;-2.54;100.00;100522.50;5046116;28;20103;-62
2022/12/19 12:45:45;;;;;;;35.33;14.63;;;;;;;-2.52;100.00;100519.13;5041124;28;20126;-61
2022/12/19 12:48:41;;;;;;;32.03;13.27;;;;;;;-2.68;100.00;100507.78;5077909;28;20406;-62